sensor_id;sensor_type;location;lat;lon;timestamp;pressure;altitude;pressure_sealevel;temperature;humidity
62055;BME280;48653;51.742;-1.256;2022-12-18T00:03:44;101463.39;;;-0.76;50.45
62055;BME280;48653;51.742;-1.256;2022-12-18T00:06:09;101457.81;;;-0.11;50.91
62055;BME280;48653;51.742;-1.256;2022-12-18T00:08:35;101455.76;;;-0.66;51.41
62055;BME280;48653;51.742;-1.256;2022-12-18T00:11:03;101451.87;;;-0.66;51.13
62055;BME280;48653;51.742;-1.256;2022-12-18T00:13:24;101447.37;;;-0.83;51.71
62055;BME280;48653;51.742;-1.256;2022-12-18T00:15:50;101446.63;;;-0.83;51.09
62055;BME280;48653;51.742;-1.256;2022-12-18T00:18:15;101447.15;;;-0.40;52.37
62055;BME280;48653;51.742;-1.256;2022-12-18T00:20:41;101446.34;;;-0.64;53.05
62055;BME280;48653;51.742;-1.256;2022-12-18T00:25:36;101439.28;;;-0.77;52.07
62055;BME280;48653;51.742;-1.256;2022-12-18T00:27:57;101439.12;;;-0.48;53.47
62055;BME280;48653;51.742;-1.256;2022-12-18T00:30:23;101443.16;;;-0.98;54.69
62055;BME280;48653;51.742;-1.256;2022-12-18T00:32:48;101445.13;;;-1.21;54.57
62055;BME280;48653;51.742;-1.256;2022-12-18T00:35:14;101440.87;;;-1.11;55.24
62055;BME280;48653;51.742;-1.256;2022-12-18T00:37:39;101435.31;;;-1.08;55.60
62055;BME280;48653;51.742;-1.256;2022-12-18T00:40:06;101426.06;;;-0.80;55.36
62055;BME280;48653;51.742;-1.256;2022-12-18T00:42:30;101427.06;;;-0.86;54.84
62055;BME280;48653;51.742;-1.256;2022-12-18T00:44:56;101425.30;;;-0.76;56.05
62055;BME280;48653;51.742;-1.256;2022-12-18T00:47:21;101422.58;;;-0.72;56.16
62055;BME280;48653;51.742;-1.256;2022-12-18T00:49:52;101427.29;;;-0.66;57.13
62055;BME280;48653;51.742;-1.256;2022-12-18T00:52:13;101431.11;;;-0.85;56.06
62055;BME280;48653;51.742;-1.256;2022-12-18T00:54:38;101428.83;;;-0.38;55.34
62055;BME280;48653;51.742;-1.256;2022-12-18T00:57:04;101428.65;;;-0.53;55.33
62055;BME280;48653;51.742;-1.256;2022-12-18T00:59:29;101422.46;;;-0.32;54.73
62055;BME280;48653;51.742;-1.256;2022-12-18T01:01:55;101420.62;;;-0.99;54.85
62055;BME280;48653;51.742;-1.256;2022-12-18T01:04:21;101425.44;;;-0.82;54.36
62055;BME280;48653;51.742;-1.256;2022-12-18T01:06:46;101422.46;;;-0.31;53.85
62055;BME280;48653;51.742;-1.256;2022-12-18T01:09:12;101419.26;;;-0.08;53.05
62055;BME280;48653;51.742;-1.256;2022-12-18T01:11:38;101419.04;;;-0.48;53.68
62055;BME280;48653;51.742;-1.256;2022-12-18T01:14:03;101408.24;;;-0.42;53.79
62055;BME280;48653;51.742;-1.256;2022-12-18T01:16:29;101408.75;;;-0.19;54.07
62055;BME280;48653;51.742;-1.256;2022-12-18T01:18:55;101404.89;;;-0.51;52.54
62055;BME280;48653;51.742;-1.256;2022-12-18T01:21:21;101409.19;;;-0.60;53.20
62055;BME280;48653;51.742;-1.256;2022-12-18T01:23:46;101406.10;;;-0.52;52.69
62055;BME280;48653;51.742;-1.256;2022-12-18T01:26:14;101400.07;;;-0.63;52.90
62055;BME280;48653;51.742;-1.256;2022-12-18T01:28:38;101401.52;;;-0.59;54.76
62055;BME280;48653;51.742;-1.256;2022-12-18T01:31:12;101401.54;;;-0.82;54.59
62055;BME280;48653;51.742;-1.256;2022-12-18T01:33:28;101407.24;;;-0.84;53.72
62055;BME280;48653;51.742;-1.256;2022-12-18T01:35:53;101408.78;;;-0.31;54.26
62055;BME280;48653;51.742;-1.256;2022-12-18T01:38:18;101412.29;;;-0.54;53.62
62055;BME280;48653;51.742;-1.256;2022-12-18T01:40:44;101413.83;;;-0.49;53.18
62055;BME280;48653;51.742;-1.256;2022-12-18T01:43:10;101413.48;;;-0.71;53.93
62055;BME280;48653;51.742;-1.256;2022-12-18T01:45:35;101410.21;;;-0.48;54.72
62055;BME280;48653;51.742;-1.256;2022-12-18T01:48:02;101407.00;;;-0.58;54.01
62055;BME280;48653;51.742;-1.256;2022-12-18T01:50:32;101400.23;;;-0.74;54.44
62055;BME280;48653;51.742;-1.256;2022-12-18T01:52:55;101396.15;;;-0.70;53.93
62055;BME280;48653;51.742;-1.256;2022-12-18T01:55:19;101400.04;;;-0.85;56.28
62055;BME280;48653;51.742;-1.256;2022-12-18T01:57:42;101401.02;;;-1.00;54.95
62055;BME280;48653;51.742;-1.256;2022-12-18T02:00:10;101403.19;;;-0.96;53.69
62055;BME280;48653;51.742;-1.256;2022-12-18T02:02:33;101403.19;;;-0.64;53.28
62055;BME280;48653;51.742;-1.256;2022-12-18T02:04:58;101407.15;;;-0.34;52.74
62055;BME280;48653;51.742;-1.256;2022-12-18T02:07:30;101408.53;;;-0.79;52.94
62055;BME280;48653;51.742;-1.256;2022-12-18T02:09:54;101411.87;;;-0.44;51.87
62055;BME280;48653;51.742;-1.256;2022-12-18T02:12:19;101413.14;;;-0.43;52.58
62055;BME280;48653;51.742;-1.256;2022-12-18T02:14:45;101418.28;;;-0.95;52.38
62055;BME280;48653;51.742;-1.256;2022-12-18T02:17:11;101428.20;;;-0.56;53.17
62055;BME280;48653;51.742;-1.256;2022-12-18T02:19:45;101434.83;;;-0.89;52.59
62055;BME280;48653;51.742;-1.256;2022-12-18T02:22:04;101435.78;;;-0.39;52.29
62055;BME280;48653;51.742;-1.256;2022-12-18T02:24:29;101433.92;;;-0.72;51.91
62055;BME280;48653;51.742;-1.256;2022-12-18T02:26:49;101437.55;;;-0.81;51.09
62055;BME280;48653;51.742;-1.256;2022-12-18T02:29:16;101441.94;;;-0.63;51.35
62055;BME280;48653;51.742;-1.256;2022-12-18T02:31:41;101445.07;;;-0.46;50.60
62055;BME280;48653;51.742;-1.256;2022-12-18T02:34:05;101438.52;;;-0.68;51.77
62055;BME280;48653;51.742;-1.256;2022-12-18T02:36:30;101443.38;;;-0.37;51.51
62055;BME280;48653;51.742;-1.256;2022-12-18T02:38:56;101439.14;;;-0.78;51.06
62055;BME280;48653;51.742;-1.256;2022-12-18T02:41:24;101444.42;;;-0.42;51.13
62055;BME280;48653;51.742;-1.256;2022-12-18T02:43:55;101438.12;;;-0.91;51.83
62055;BME280;48653;51.742;-1.256;2022-12-18T02:48:36;101415.79;;;-0.93;51.41
62055;BME280;48653;51.742;-1.256;2022-12-18T02:51:06;101407.56;;;-0.81;50.85
62055;BME280;48653;51.742;-1.256;2022-12-18T02:53:31;101412.49;;;-0.35;51.52
62055;BME280;48653;51.742;-1.256;2022-12-18T02:55:58;101411.03;;;-0.91;51.50
62055;BME280;48653;51.742;-1.256;2022-12-18T02:58:20;101396.12;;;-0.51;52.42
62055;BME280;48653;51.742;-1.256;2022-12-18T03:00:46;101392.40;;;-0.81;53.88
62055;BME280;48653;51.742;-1.256;2022-12-18T03:03:11;101392.25;;;-0.71;54.06
62055;BME280;48653;51.742;-1.256;2022-12-18T03:05:36;101389.27;;;-0.64;54.80
62055;BME280;48653;51.742;-1.256;2022-12-18T03:08:01;101393.89;;;-0.73;54.52
62055;BME280;48653;51.742;-1.256;2022-12-18T03:10:26;101392.00;;;-1.04;57.29
62055;BME280;48653;51.742;-1.256;2022-12-18T03:12:53;101393.49;;;-1.05;56.31
62055;BME280;48653;51.742;-1.256;2022-12-18T03:15:18;101392.46;;;-0.88;55.35
62055;BME280;48653;51.742;-1.256;2022-12-18T03:17:43;101388.23;;;-0.30;55.16
62055;BME280;48653;51.742;-1.256;2022-12-18T03:20:10;101386.21;;;-0.23;55.22
62055;BME280;48653;51.742;-1.256;2022-12-18T03:22:32;101386.73;;;-0.70;55.65
62055;BME280;48653;51.742;-1.256;2022-12-18T03:24:56;101385.90;;;-0.53;54.61
62055;BME280;48653;51.742;-1.256;2022-12-18T03:27:22;101389.05;;;-0.46;54.64
62055;BME280;48653;51.742;-1.256;2022-12-18T03:29:50;101380.63;;;-0.41;54.73
62055;BME280;48653;51.742;-1.256;2022-12-18T03:32:15;101378.93;;;-0.04;53.77
62055;BME280;48653;51.742;-1.256;2022-12-18T03:34:39;101374.89;;;-0.19;53.50
62055;BME280;48653;51.742;-1.256;2022-12-18T03:37:03;101377.43;;;0.56;52.49
62055;BME280;48653;51.742;-1.256;2022-12-18T03:39:27;101376.96;;;-0.08;53.42
62055;BME280;48653;51.742;-1.256;2022-12-18T03:41:58;101369.77;;;-0.35;53.91
62055;BME280;48653;51.742;-1.256;2022-12-18T03:44:23;101365.69;;;-0.25;53.80
62055;BME280;48653;51.742;-1.256;2022-12-18T03:46:49;101361.46;;;-0.38;53.98
62055;BME280;48653;51.742;-1.256;2022-12-18T03:49:12;101364.27;;;-0.52;54.17
62055;BME280;48653;51.742;-1.256;2022-12-18T03:51:39;101366.96;;;0.31;53.67
62055;BME280;48653;51.742;-1.256;2022-12-18T03:54:03;101361.59;;;-0.12;53.44
62055;BME280;48653;51.742;-1.256;2022-12-18T03:56:29;101358.54;;;-0.31;53.39
62055;BME280;48653;51.742;-1.256;2022-12-18T03:58:52;101353.14;;;-0.36;53.71
62055;BME280;48653;51.742;-1.256;2022-12-18T04:01:17;101344.42;;;-0.29;54.04
62055;BME280;48653;51.742;-1.256;2022-12-18T04:03:42;101336.08;;;-0.23;54.39
62055;BME280;48653;51.742;-1.256;2022-12-18T04:06:07;101337.43;;;0.55;53.56
62055;BME280;48653;51.742;-1.256;2022-12-18T04:08:33;101337.00;;;0.51;52.80
62055;BME280;48653;51.742;-1.256;2022-12-18T04:10:58;101332.84;;;-0.20;54.02
62055;BME280;48653;51.742;-1.256;2022-12-18T04:13:24;101331.85;;;-0.14;54.39
62055;BME280;48653;51.742;-1.256;2022-12-18T04:15:49;101332.43;;;0.06;54.24
62055;BME280;48653;51.742;-1.256;2022-12-18T04:18:14;101323.68;;;-0.22;55.70
62055;BME280;48653;51.742;-1.256;2022-12-18T04:20:39;101321.20;;;-0.10;55.47
62055;BME280;48653;51.742;-1.256;2022-12-18T04:23:05;101313.59;;;0.05;54.93
62055;BME280;48653;51.742;-1.256;2022-12-18T04:25:31;101312.83;;;-0.30;54.82
62055;BME280;48653;51.742;-1.256;2022-12-18T04:27:56;101308.47;;;0.11;55.57
62055;BME280;48653;51.742;-1.256;2022-12-18T04:30:21;101303.01;;;0.08;54.72
62055;BME280;48653;51.742;-1.256;2022-12-18T04:32:47;101297.46;;;-0.24;54.67
62055;BME280;48653;51.742;-1.256;2022-12-18T04:35:12;101293.87;;;-0.08;55.51
62055;BME280;48653;51.742;-1.256;2022-12-18T04:37:38;101286.93;;;-0.43;56.97
62055;BME280;48653;51.742;-1.256;2022-12-18T04:40:09;101281.09;;;-0.46;57.30
62055;BME280;48653;51.742;-1.256;2022-12-18T04:42:28;101279.45;;;-1.22;59.46
62055;BME280;48653;51.742;-1.256;2022-12-18T04:44:54;101269.06;;;-1.19;60.37
62055;BME280;48653;51.742;-1.256;2022-12-18T04:47:20;101251.08;;;-1.46;60.26
62055;BME280;48653;51.742;-1.256;2022-12-18T04:49:45;101239.18;;;-1.90;63.64
62055;BME280;48653;51.742;-1.256;2022-12-18T04:52:11;101233.66;;;-1.66;63.55
62055;BME280;48653;51.742;-1.256;2022-12-18T04:54:37;101227.04;;;-2.31;64.59
62055;BME280;48653;51.742;-1.256;2022-12-18T04:57:02;101226.93;;;-1.79;63.52
62055;BME280;48653;51.742;-1.256;2022-12-18T04:59:28;101219.31;;;-1.26;62.66
62055;BME280;48653;51.742;-1.256;2022-12-18T05:01:53;101216.43;;;-1.97;64.20
62055;BME280;48653;51.742;-1.256;2022-12-18T05:04:18;101202.98;;;-1.47;63.28
62055;BME280;48653;51.742;-1.256;2022-12-18T05:06:44;101200.37;;;-2.02;65.59
62055;BME280;48653;51.742;-1.256;2022-12-18T05:09:09;101198.63;;;-1.86;65.11
62055;BME280;48653;51.742;-1.256;2022-12-18T05:11:34;101195.41;;;-1.87;65.88
62055;BME280;48653;51.742;-1.256;2022-12-18T05:14:00;101195.62;;;-1.89;65.13
62055;BME280;48653;51.742;-1.256;2022-12-18T05:16:26;101186.53;;;-1.13;63.27
62055;BME280;48653;51.742;-1.256;2022-12-18T05:18:51;101179.34;;;-0.78;62.45
62055;BME280;48653;51.742;-1.256;2022-12-18T05:21:17;101184.56;;;-1.15;63.57
62055;BME280;48653;51.742;-1.256;2022-12-18T05:23:41;101190.94;;;-1.03;62.28
62055;BME280;48653;51.742;-1.256;2022-12-18T05:26:08;101203.05;;;-0.60;61.53
62055;BME280;48653;51.742;-1.256;2022-12-18T05:28:34;101210.72;;;-1.46;64.16
62055;BME280;48653;51.742;-1.256;2022-12-18T05:31:01;101206.50;;;-1.17;63.08
62055;BME280;48653;51.742;-1.256;2022-12-18T05:33:26;101195.94;;;-0.68;62.61
62055;BME280;48653;51.742;-1.256;2022-12-18T05:35:51;101192.80;;;-0.91;62.53
62055;BME280;48653;51.742;-1.256;2022-12-18T05:38:15;101190.15;;;-0.73;61.64
62055;BME280;48653;51.742;-1.256;2022-12-18T05:40:41;101187.27;;;-0.37;60.54
62055;BME280;48653;51.742;-1.256;2022-12-18T05:43:05;101183.38;;;0.01;60.01
62055;BME280;48653;51.742;-1.256;2022-12-18T05:45:31;101184.78;;;-0.70;62.41
62055;BME280;48653;51.742;-1.256;2022-12-18T05:47:56;101176.67;;;-0.96;63.63
62055;BME280;48653;51.742;-1.256;2022-12-18T05:50:21;101164.81;;;-0.90;63.57
62055;BME280;48653;51.742;-1.256;2022-12-18T05:52:46;101162.86;;;-1.17;64.06
62055;BME280;48653;51.742;-1.256;2022-12-18T05:55:12;101151.82;;;-1.25;64.10
62055;BME280;48653;51.742;-1.256;2022-12-18T05:57:38;101149.54;;;-0.73;63.37
62055;BME280;48653;51.742;-1.256;2022-12-18T06:00:04;101146.90;;;-1.02;64.11
62055;BME280;48653;51.742;-1.256;2022-12-18T06:02:29;101145.16;;;0.27;61.34
62055;BME280;48653;51.742;-1.256;2022-12-18T06:04:55;101144.77;;;-0.88;62.80
62055;BME280;48653;51.742;-1.256;2022-12-18T06:07:20;101136.26;;;-1.06;64.24
62055;BME280;48653;51.742;-1.256;2022-12-18T06:09:46;101123.54;;;-1.29;65.13
62055;BME280;48653;51.742;-1.256;2022-12-18T06:12:11;101124.66;;;-0.71;63.75
62055;BME280;48653;51.742;-1.256;2022-12-18T06:14:36;101124.68;;;-1.32;64.79
62055;BME280;48653;51.742;-1.256;2022-12-18T06:17:02;101120.29;;;-0.87;64.29
62055;BME280;48653;51.742;-1.256;2022-12-18T06:19:27;101117.36;;;-0.67;63.44
62055;BME280;48653;51.742;-1.256;2022-12-18T06:21:53;101114.04;;;-0.87;64.17
62055;BME280;48653;51.742;-1.256;2022-12-18T06:24:19;101104.46;;;-0.25;62.56
62055;BME280;48653;51.742;-1.256;2022-12-18T06:26:44;101104.27;;;-0.74;63.48
62055;BME280;48653;51.742;-1.256;2022-12-18T06:29:10;101085.48;;;-1.17;64.59
62055;BME280;48653;51.742;-1.256;2022-12-18T06:31:35;101095.78;;;-0.81;64.15
62055;BME280;48653;51.742;-1.256;2022-12-18T06:34:03;101111.51;;;-0.79;63.85
62055;BME280;48653;51.742;-1.256;2022-12-18T06:36:26;101096.94;;;-1.22;65.09
62055;BME280;48653;51.742;-1.256;2022-12-18T06:38:52;101091.27;;;-0.96;64.85
62055;BME280;48653;51.742;-1.256;2022-12-18T06:41:19;101096.10;;;-0.65;63.62
62055;BME280;48653;51.742;-1.256;2022-12-18T06:43:43;101097.28;;;-0.37;63.20
62055;BME280;48653;51.742;-1.256;2022-12-18T06:46:09;101099.87;;;-0.95;63.92
62055;BME280;48653;51.742;-1.256;2022-12-18T06:48:34;101096.26;;;-1.46;66.81
62055;BME280;48653;51.742;-1.256;2022-12-18T06:51:00;101097.61;;;-1.66;67.50
62055;BME280;48653;51.742;-1.256;2022-12-18T06:53:25;101092.79;;;-0.70;63.43
62055;BME280;48653;51.742;-1.256;2022-12-18T06:55:51;101093.13;;;-1.13;65.13
62055;BME280;48653;51.742;-1.256;2022-12-18T06:58:16;101095.13;;;-0.28;62.64
62055;BME280;48653;51.742;-1.256;2022-12-18T07:00:42;101092.05;;;-1.16;64.87
62055;BME280;48653;51.742;-1.256;2022-12-18T07:03:07;101085.56;;;-0.66;63.93
62055;BME280;48653;51.742;-1.256;2022-12-18T07:05:33;101079.46;;;-1.21;65.90
62055;BME280;48653;51.742;-1.256;2022-12-18T07:07:58;101079.89;;;-1.39;66.37
62055;BME280;48653;51.742;-1.256;2022-12-18T07:10:24;101075.47;;;-1.15;65.65
62055;BME280;48653;51.742;-1.256;2022-12-18T07:12:49;101084.48;;;-0.47;63.49
62055;BME280;48653;51.742;-1.256;2022-12-18T07:15:15;101084.35;;;-0.84;64.05
62055;BME280;48653;51.742;-1.256;2022-12-18T07:17:40;101072.51;;;-0.69;63.08
62055;BME280;48653;51.742;-1.256;2022-12-18T07:20:07;101072.45;;;-0.78;64.05
62055;BME280;48653;51.742;-1.256;2022-12-18T07:22:31;101074.20;;;-0.95;64.46
62055;BME280;48653;51.742;-1.256;2022-12-18T07:24:56;101071.39;;;-0.39;63.31
62055;BME280;48653;51.742;-1.256;2022-12-18T07:27:22;101074.79;;;-1.09;64.32
62055;BME280;48653;51.742;-1.256;2022-12-18T07:29:47;101069.86;;;-1.31;66.03
62055;BME280;48653;51.742;-1.256;2022-12-18T07:32:12;101071.72;;;-0.90;64.89
62055;BME280;48653;51.742;-1.256;2022-12-18T07:34:38;101072.67;;;-0.18;63.15
62055;BME280;48653;51.742;-1.256;2022-12-18T07:37:03;101069.46;;;-0.55;62.26
62055;BME280;48653;51.742;-1.256;2022-12-18T07:39:29;101065.12;;;-1.06;63.88
62055;BME280;48653;51.742;-1.256;2022-12-18T07:41:55;101063.40;;;-0.30;62.88
62055;BME280;48653;51.742;-1.256;2022-12-18T07:44:20;101071.50;;;-0.71;63.11
62055;BME280;48653;51.742;-1.256;2022-12-18T07:46:45;101069.16;;;0.15;60.70
62055;BME280;48653;51.742;-1.256;2022-12-18T07:49:11;101062.31;;;0.13;60.28
62055;BME280;48653;51.742;-1.256;2022-12-18T07:51:37;101062.84;;;-0.26;60.20
62055;BME280;48653;51.742;-1.256;2022-12-18T07:54:03;101055.81;;;-0.06;59.98
62055;BME280;48653;51.742;-1.256;2022-12-18T07:56:28;101048.76;;;-0.26;61.73
62055;BME280;48653;51.742;-1.256;2022-12-18T07:58:56;101051.54;;;-0.06;61.47
62055;BME280;48653;51.742;-1.256;2022-12-18T08:01:19;101063.56;;;0.13;60.39
62055;BME280;48653;51.742;-1.256;2022-12-18T08:03:44;101062.56;;;0.03;60.02
62055;BME280;48653;51.742;-1.256;2022-12-18T08:06:10;101061.28;;;0.30;60.04
62055;BME280;48653;51.742;-1.256;2022-12-18T08:08:35;101064.49;;;0.18;59.77
62055;BME280;48653;51.742;-1.256;2022-12-18T08:11:01;101074.12;;;-0.76;62.20
62055;BME280;48653;51.742;-1.256;2022-12-18T08:13:27;101088.71;;;-0.47;62.60
62055;BME280;48653;51.742;-1.256;2022-12-18T08:15:56;101091.06;;;0.01;60.99
62055;BME280;48653;51.742;-1.256;2022-12-18T08:18:17;101080.32;;;0.37;59.34
62055;BME280;48653;51.742;-1.256;2022-12-18T08:20:42;101085.39;;;-0.31;61.01
62055;BME280;48653;51.742;-1.256;2022-12-18T08:23:08;101074.82;;;0.20;60.11
62055;BME280;48653;51.742;-1.256;2022-12-18T08:27:59;101088.70;;;0.08;59.66
62055;BME280;48653;51.742;-1.256;2022-12-18T08:30:24;101099.65;;;0.42;59.22
62055;BME280;48653;51.742;-1.256;2022-12-18T08:32:51;101103.47;;;-0.00;59.96
62055;BME280;48653;51.742;-1.256;2022-12-18T08:35:15;101108.32;;;-0.08;59.98
62055;BME280;48653;51.742;-1.256;2022-12-18T08:37:41;101087.81;;;0.22;59.11
62055;BME280;48653;51.742;-1.256;2022-12-18T08:40:08;101082.05;;;0.66;58.16
62055;BME280;48653;51.742;-1.256;2022-12-18T08:42:35;101084.34;;;-0.32;59.51
62055;BME280;48653;51.742;-1.256;2022-12-18T08:44:57;101084.61;;;0.51;59.56
62055;BME280;48653;51.742;-1.256;2022-12-18T08:47:23;101083.00;;;0.28;59.22
62055;BME280;48653;51.742;-1.256;2022-12-18T08:49:49;101084.49;;;0.71;57.53
62055;BME280;48653;51.742;-1.256;2022-12-18T08:52:13;101082.91;;;0.39;58.27
62055;BME280;48653;51.742;-1.256;2022-12-18T08:54:39;101090.27;;;0.78;57.47
62055;BME280;48653;51.742;-1.256;2022-12-18T08:57:04;101099.33;;;1.11;55.93
62055;BME280;48653;51.742;-1.256;2022-12-18T08:59:30;101099.52;;;1.41;55.54
62055;BME280;48653;51.742;-1.256;2022-12-18T09:01:55;101103.62;;;1.56;55.09
62055;BME280;48653;51.742;-1.256;2022-12-18T09:04:20;101101.10;;;1.17;55.75
62055;BME280;48653;51.742;-1.256;2022-12-18T09:06:46;101100.48;;;0.89;56.88
62055;BME280;48653;51.742;-1.256;2022-12-18T09:09:11;101097.68;;;1.15;55.21
62055;BME280;48653;51.742;-1.256;2022-12-18T09:11:36;101103.56;;;1.49;55.04
62055;BME280;48653;51.742;-1.256;2022-12-18T09:14:02;101103.34;;;1.44;54.31
62055;BME280;48653;51.742;-1.256;2022-12-18T09:16:28;101096.22;;;1.35;54.97
62055;BME280;48653;51.742;-1.256;2022-12-18T09:18:52;101088.99;;;1.73;55.73
62055;BME280;48653;51.742;-1.256;2022-12-18T09:21:19;101092.74;;;1.26;56.61
62055;BME280;48653;51.742;-1.256;2022-12-18T09:23:48;101092.98;;;0.84;56.78
62055;BME280;48653;51.742;-1.256;2022-12-18T09:26:09;101101.44;;;0.73;57.82
62055;BME280;48653;51.742;-1.256;2022-12-18T09:28:35;101100.81;;;1.12;57.07
62055;BME280;48653;51.742;-1.256;2022-12-18T09:31:04;101102.52;;;1.40;56.06
62055;BME280;48653;51.742;-1.256;2022-12-18T09:33:25;101094.98;;;1.07;56.73
62055;BME280;48653;51.742;-1.256;2022-12-18T09:35:51;101084.75;;;0.52;57.89
62055;BME280;48653;51.742;-1.256;2022-12-18T09:38:18;101077.09;;;1.35;56.35
62055;BME280;48653;51.742;-1.256;2022-12-18T09:40:43;101069.63;;;0.53;58.38
62055;BME280;48653;51.742;-1.256;2022-12-18T09:43:13;101057.61;;;0.52;58.45
62055;BME280;48653;51.742;-1.256;2022-12-18T09:48:01;101053.88;;;0.27;59.81
62055;BME280;48653;51.742;-1.256;2022-12-18T09:50:32;101048.87;;;0.24;59.87
62055;BME280;48653;51.742;-1.256;2022-12-18T09:52:52;101051.26;;;-0.21;61.65
62055;BME280;48653;51.742;-1.256;2022-12-18T09:55:22;101050.47;;;-0.31;61.90
62055;BME280;48653;51.742;-1.256;2022-12-18T09:57:45;101055.08;;;-0.38;62.99
62055;BME280;48653;51.742;-1.256;2022-12-18T10:02:30;101055.12;;;-0.70;64.74
62055;BME280;48653;51.742;-1.256;2022-12-18T10:05:04;101044.71;;;-0.01;63.55
62055;BME280;48653;51.742;-1.256;2022-12-18T10:07:27;101028.73;;;-0.30;63.33
62055;BME280;48653;51.742;-1.256;2022-12-18T10:09:51;101013.64;;;-0.27;62.97
62055;BME280;48653;51.742;-1.256;2022-12-18T10:12:19;100993.72;;;0.19;61.94
62055;BME280;48653;51.742;-1.256;2022-12-18T10:14:43;100978.79;;;0.41;61.51
62055;BME280;48653;51.742;-1.256;2022-12-18T10:17:12;100969.52;;;-0.25;64.51
62055;BME280;48653;51.742;-1.256;2022-12-18T10:19:37;100956.96;;;-0.14;63.62
62055;BME280;48653;51.742;-1.256;2022-12-18T10:22:01;100949.62;;;-0.35;64.76
62055;BME280;48653;51.742;-1.256;2022-12-18T10:24:24;100945.41;;;-0.27;63.78
62055;BME280;48653;51.742;-1.256;2022-12-18T10:26:46;100941.82;;;-0.39;64.44
62055;BME280;48653;51.742;-1.256;2022-12-18T10:29:13;100943.23;;;-0.80;66.03
62055;BME280;48653;51.742;-1.256;2022-12-18T10:31:36;100938.17;;;-0.89;65.89
62055;BME280;48653;51.742;-1.256;2022-12-18T10:34:01;100927.18;;;-0.31;65.84
62055;BME280;48653;51.742;-1.256;2022-12-18T10:36:27;100920.49;;;-0.74;66.85
62055;BME280;48653;51.742;-1.256;2022-12-18T10:38:52;100914.40;;;-0.65;65.96
62055;BME280;48653;51.742;-1.256;2022-12-18T10:41:25;100929.50;;;-0.26;66.06
62055;BME280;48653;51.742;-1.256;2022-12-18T10:43:43;100933.41;;;-0.65;66.79
62055;BME280;48653;51.742;-1.256;2022-12-18T10:46:15;100925.61;;;0.16;64.49
62055;BME280;48653;51.742;-1.256;2022-12-18T10:48:35;100919.41;;;-0.50;65.90
62055;BME280;48653;51.742;-1.256;2022-12-18T10:50:59;100907.86;;;-0.00;64.86
62055;BME280;48653;51.742;-1.256;2022-12-18T10:53:28;100899.02;;;0.41;64.05
62055;BME280;48653;51.742;-1.256;2022-12-18T10:55:52;100894.37;;;-0.96;67.08
62055;BME280;48653;51.742;-1.256;2022-12-18T10:58:22;100906.26;;;-0.53;67.75
62055;BME280;48653;51.742;-1.256;2022-12-18T11:00:41;100920.83;;;-0.89;67.13
62055;BME280;48653;51.742;-1.256;2022-12-18T11:05:33;100925.50;;;-0.03;65.24
62055;BME280;48653;51.742;-1.256;2022-12-18T11:07:57;100914.38;;;0.61;64.11
62055;BME280;48653;51.742;-1.256;2022-12-18T11:10:26;100908.45;;;0.62;63.71
62055;BME280;48653;51.742;-1.256;2022-12-18T11:12:49;100902.33;;;0.55;63.57
62055;BME280;48653;51.742;-1.256;2022-12-18T11:15:21;100897.62;;;0.49;63.75
62055;BME280;48653;51.742;-1.256;2022-12-18T11:17:39;100889.83;;;-0.45;66.54
62055;BME280;48653;51.742;-1.256;2022-12-18T11:20:06;100879.92;;;0.60;63.07
62055;BME280;48653;51.742;-1.256;2022-12-18T11:25:00;100873.74;;;0.12;65.25
62055;BME280;48653;51.742;-1.256;2022-12-18T11:27:25;100867.07;;;-0.01;65.82
62055;BME280;48653;51.742;-1.256;2022-12-18T11:29:45;100863.51;;;-0.15;66.38
62055;BME280;48653;51.742;-1.256;2022-12-18T11:32:30;100861.52;;;0.03;67.00
62055;BME280;48653;51.742;-1.256;2022-12-18T11:34:35;100858.35;;;-0.19;67.50
62055;BME280;48653;51.742;-1.256;2022-12-18T11:37:08;100845.33;;;0.04;68.24
62055;BME280;48653;51.742;-1.256;2022-12-18T11:39:31;100833.77;;;0.31;66.94
62055;BME280;48653;51.742;-1.256;2022-12-18T11:41:56;100826.03;;;0.16;66.15
62055;BME280;48653;51.742;-1.256;2022-12-18T11:44:24;100820.83;;;0.02;66.35
62055;BME280;48653;51.742;-1.256;2022-12-18T11:46:55;100826.33;;;0.30;66.63
62055;BME280;48653;51.742;-1.256;2022-12-18T11:49:14;100821.11;;;0.39;66.41
62055;BME280;48653;51.742;-1.256;2022-12-18T11:51:50;100818.68;;;-0.40;69.06
62055;BME280;48653;51.742;-1.256;2022-12-18T11:54:00;100812.78;;;0.61;65.63
62055;BME280;48653;51.742;-1.256;2022-12-18T11:56:30;100807.17;;;0.92;65.11
62055;BME280;48653;51.742;-1.256;2022-12-18T11:58:54;100797.83;;;0.41;66.50
62055;BME280;48653;51.742;-1.256;2022-12-18T12:01:26;100787.19;;;0.11;67.53
62055;BME280;48653;51.742;-1.256;2022-12-18T12:03:54;100779.46;;;0.71;65.69
62055;BME280;48653;51.742;-1.256;2022-12-18T12:06:14;100769.57;;;0.33;67.17
62055;BME280;48653;51.742;-1.256;2022-12-18T12:08:41;100763.38;;;-0.13;67.74
62055;BME280;48653;51.742;-1.256;2022-12-18T12:11:04;100754.84;;;0.11;67.83
62055;BME280;48653;51.742;-1.256;2022-12-18T12:13:35;100746.06;;;0.51;68.46
62055;BME280;48653;51.742;-1.256;2022-12-18T12:15:58;100741.52;;;-0.24;70.49
62055;BME280;48653;51.742;-1.256;2022-12-18T12:18:24;100730.82;;;-0.42;70.18
62055;BME280;48653;51.742;-1.256;2022-12-18T12:20:51;100720.37;;;0.22;68.41
62055;BME280;48653;51.742;-1.256;2022-12-18T12:23:12;100712.39;;;0.08;68.67
62055;BME280;48653;51.742;-1.256;2022-12-18T12:25:38;100713.14;;;-0.11;70.79
62055;BME280;48653;51.742;-1.256;2022-12-18T12:28:05;100717.01;;;-0.05;69.53
62055;BME280;48653;51.742;-1.256;2022-12-18T12:30:28;100718.32;;;0.54;68.03
62055;BME280;48653;51.742;-1.256;2022-12-18T12:35:24;100706.97;;;0.60;66.71
62055;BME280;48653;51.742;-1.256;2022-12-18T12:37:45;100694.74;;;0.17;68.06
62055;BME280;48653;51.742;-1.256;2022-12-18T12:40:04;100698.46;;;0.58;68.32
62055;BME280;48653;51.742;-1.256;2022-12-18T12:42:32;100687.70;;;0.18;69.32
62055;BME280;48653;51.742;-1.256;2022-12-18T12:44:56;100689.77;;;0.26;69.25
62055;BME280;48653;51.742;-1.256;2022-12-18T12:47:24;100688.43;;;-0.27;70.94
62055;BME280;48653;51.742;-1.256;2022-12-18T12:49:46;100682.70;;;0.06;69.13
62055;BME280;48653;51.742;-1.256;2022-12-18T12:52:14;100671.75;;;-0.44;69.85
62055;BME280;48653;51.742;-1.256;2022-12-18T12:54:46;100666.68;;;-0.38;70.59